sensor_id;sensor_type;location;lat;lon;timestamp;P1;durP1;ratioP1;P2;durP2;ratioP2
69956;SDS011;57283;54.816;9.482;2023-04-21T00:01:12;7.67;;;3.23;;
69956;SDS011;57283;54.816;9.482;2023-04-21T00:03:41;6.93;;;3.75;;
69956;SDS011;57283;54.816;9.482;2023-04-21T00:06:09;7.30;;;3.85;;
69956;SDS011;57283;54.816;9.482;2023-04-21T00:08:37;10.93;;;3.70;;
69956;SDS011;57283;54.816;9.482;2023-04-21T00:11:06;8.45;;;4.00;;
69956;SDS011;57283;54.816;9.482;2023-04-21T00:13:33;8.90;;;4.13;;
69956;SDS011;57283;54.816;9.482;2023-04-21T00:16:02;7.22;;;3.25;;
69956;SDS011;57283;54.816;9.482;2023-04-21T00:18:30;6.95;;;3.53;;
69956;SDS011;57283;54.816;9.482;2023-04-21T00:20:58;7.70;;;3.70;;
69956;SDS011;57283;54.816;9.482;2023-04-21T00:23:26;7.95;;;3.97;;
69956;SDS011;57283;54.816;9.482;2023-04-21T00:25:53;9.17;;;3.83;;
69956;SDS011;57283;54.816;9.482;2023-04-21T00:28:21;10.07;;;3.90;;
69956;SDS011;57283;54.816;9.482;2023-04-21T00:30:50;7.25;;;3.45;;
69956;SDS011;57283;54.816;9.482;2023-04-21T00:33:21;8.30;;;3.60;;
69956;SDS011;57283;54.816;9.482;2023-04-21T00:35:48;9.18;;;4.00;;
69956;SDS011;57283;54.816;9.482;2023-04-21T00:38:16;7.90;;;3.30;;
69956;SDS011;57283;54.816;9.482;2023-04-21T00:40:43;10.95;;;3.90;;
69956;SDS011;57283;54.816;9.482;2023-04-21T00:43:11;8.93;;;3.80;;
69956;SDS011;57283;54.816;9.482;2023-04-21T00:45:39;7.78;;;3.28;;
69956;SDS011;57283;54.816;9.482;2023-04-21T00:48:06;7.68;;;3.50;;
69956;SDS011;57283;54.816;9.482;2023-04-21T00:50:35;9.50;;;3.80;;
69956;SDS011;57283;54.816;9.482;2023-04-21T00:53:03;10.15;;;3.70;;
69956;SDS011;57283;54.816;9.482;2023-04-21T00:55:31;8.48;;;3.65;;
69956;SDS011;57283;54.816;9.482;2023-04-21T00:57:59;7.70;;;3.63;;
69956;SDS011;57283;54.816;9.482;2023-04-21T01:00:27;7.72;;;3.40;;
69956;SDS011;57283;54.816;9.482;2023-04-21T01:02:54;8.73;;;3.70;;
69956;SDS011;57283;54.816;9.482;2023-04-21T01:05:22;8.30;;;3.53;;
69956;SDS011;57283;54.816;9.482;2023-04-21T01:07:51;6.95;;;3.30;;
69956;SDS011;57283;54.816;9.482;2023-04-21T01:10:19;7.28;;;3.25;;
69956;SDS011;57283;54.816;9.482;2023-04-21T01:12:47;9.00;;;3.83;;
69956;SDS011;57283;54.816;9.482;2023-04-21T01:15:15;8.10;;;3.40;;
69956;SDS011;57283;54.816;9.482;2023-04-21T01:17:43;8.32;;;3.08;;
69956;SDS011;57283;54.816;9.482;2023-04-21T01:20:12;8.80;;;3.15;;
69956;SDS011;57283;54.816;9.482;2023-04-21T01:22:41;9.18;;;3.20;;
69956;SDS011;57283;54.816;9.482;2023-04-21T01:25:10;9.63;;;3.78;;
69956;SDS011;57283;54.816;9.482;2023-04-21T01:27:38;8.30;;;3.20;;
69956;SDS011;57283;54.816;9.482;2023-04-21T01:30:06;8.73;;;3.60;;
69956;SDS011;57283;54.816;9.482;2023-04-21T01:32:34;6.50;;;2.95;;
69956;SDS011;57283;54.816;9.482;2023-04-21T01:35:02;7.68;;;3.05;;
69956;SDS011;57283;54.816;9.482;2023-04-21T01:37:30;8.43;;;3.20;;
69956;SDS011;57283;54.816;9.482;2023-04-21T01:40:00;6.30;;;2.77;;
69956;SDS011;57283;54.816;9.482;2023-04-21T01:42:30;7.47;;;3.00;;
69956;SDS011;57283;54.816;9.482;2023-04-21T01:44:57;7.32;;;3.35;;
69956;SDS011;57283;54.816;9.482;2023-04-21T01:47:26;7.68;;;3.00;;
69956;SDS011;57283;54.816;9.482;2023-04-21T01:49:53;7.68;;;3.53;;
69956;SDS011;57283;54.816;9.482;2023-04-21T01:52:21;7.87;;;2.93;;
69956;SDS011;57283;54.816;9.482;2023-04-21T01:54:49;7.95;;;2.65;;
69956;SDS011;57283;54.816;9.482;2023-04-21T01:57:18;6.97;;;2.53;;
69956;SDS011;57283;54.816;9.482;2023-04-21T01:59:46;5.22;;;2.58;;
69956;SDS011;57283;54.816;9.482;2023-04-21T02:02:14;7.78;;;3.10;;
69956;SDS011;57283;54.816;9.482;2023-04-21T02:04:42;7.80;;;2.90;;
69956;SDS011;57283;54.816;9.482;2023-04-21T02:07:10;7.32;;;3.13;;
69956;SDS011;57283;54.816;9.482;2023-04-21T02:09:38;7.40;;;2.70;;
69956;SDS011;57283;54.816;9.482;2023-04-21T02:12:05;7.40;;;2.95;;
69956;SDS011;57283;54.816;9.482;2023-04-21T02:14:35;7.40;;;3.10;;
69956;SDS011;57283;54.816;9.482;2023-04-21T02:17:03;7.90;;;2.90;;
69956;SDS011;57283;54.816;9.482;2023-04-21T02:19:30;9.63;;;2.97;;
69956;SDS011;57283;54.816;9.482;2023-04-21T02:21:58;5.75;;;2.53;;
69956;SDS011;57283;54.816;9.482;2023-04-21T02:24:25;5.60;;;2.60;;
69956;SDS011;57283;54.816;9.482;2023-04-21T02:26:53;9.00;;;3.10;;
69956;SDS011;57283;54.816;9.482;2023-04-21T02:29:22;5.37;;;2.27;;
69956;SDS011;57283;54.816;9.482;2023-04-21T02:31:51;6.13;;;2.80;;
69956;SDS011;57283;54.816;9.482;2023-04-21T02:34:30;7.85;;;2.90;;
69956;SDS011;57283;54.816;9.482;2023-04-21T02:36:58;8.55;;;2.92;;
69956;SDS011;57283;54.816;9.482;2023-04-21T02:39:26;7.95;;;2.72;;
69956;SDS011;57283;54.816;9.482;2023-04-21T02:41:53;6.83;;;2.70;;
69956;SDS011;57283;54.816;9.482;2023-04-21T02:44:21;5.93;;;1.98;;
69956;SDS011;57283;54.816;9.482;2023-04-21T02:46:49;7.53;;;2.55;;
69956;SDS011;57283;54.816;9.482;2023-04-21T02:49:18;7.70;;;2.75;;
69956;SDS011;57283;54.816;9.482;2023-04-21T02:51:46;7.40;;;3.10;;
69956;SDS011;57283;54.816;9.482;2023-04-21T02:54:14;6.43;;;2.50;;
69956;SDS011;57283;54.816;9.482;2023-04-21T02:56:41;6.50;;;2.60;;
69956;SDS011;57283;54.816;9.482;2023-04-21T02:59:09;7.15;;;2.70;;
69956;SDS011;57283;54.816;9.482;2023-04-21T03:01:41;5.53;;;2.70;;
69956;SDS011;57283;54.816;9.482;2023-04-21T03:04:09;5.35;;;2.60;;
69956;SDS011;57283;54.816;9.482;2023-04-21T03:06:39;7.17;;;2.80;;
69956;SDS011;57283;54.816;9.482;2023-04-21T03:09:07;5.70;;;2.40;;
69956;SDS011;57283;54.816;9.482;2023-04-21T03:11:35;7.38;;;2.80;;
69956;SDS011;57283;54.816;9.482;2023-04-21T03:14:03;6.43;;;2.40;;
69956;SDS011;57283;54.816;9.482;2023-04-21T03:16:30;5.70;;;2.65;;
69956;SDS011;57283;54.816;9.482;2023-04-21T03:18:58;7.67;;;2.80;;
69956;SDS011;57283;54.816;9.482;2023-04-21T03:21:26;5.13;;;2.40;;
69956;SDS011;57283;54.816;9.482;2023-04-21T03:23:55;4.78;;;2.25;;
69956;SDS011;57283;54.816;9.482;2023-04-21T03:26:23;8.48;;;2.45;;
69956;SDS011;57283;54.816;9.482;2023-04-21T03:28:51;8.52;;;2.60;;
69956;SDS011;57283;54.816;9.482;2023-04-21T03:31:18;8.10;;;2.70;;
69956;SDS011;57283;54.816;9.482;2023-04-21T03:33:46;6.20;;;2.65;;
69956;SDS011;57283;54.816;9.482;2023-04-21T03:36:13;7.35;;;2.90;;
69956;SDS011;57283;54.816;9.482;2023-04-21T03:38:41;6.93;;;2.75;;
69956;SDS011;57283;54.816;9.482;2023-04-21T03:41:10;7.00;;;2.35;;
69956;SDS011;57283;54.816;9.482;2023-04-21T03:43:38;5.43;;;2.40;;
69956;SDS011;57283;54.816;9.482;2023-04-21T03:46:05;6.45;;;2.60;;
69956;SDS011;57283;54.816;9.482;2023-04-21T03:48:33;5.93;;;2.22;;
69956;SDS011;57283;54.816;9.482;2023-04-21T03:51:01;8.85;;;2.90;;
69956;SDS011;57283;54.816;9.482;2023-04-21T03:53:28;5.60;;;2.20;;
69956;SDS011;57283;54.816;9.482;2023-04-21T03:55:56;6.17;;;2.30;;
69956;SDS011;57283;54.816;9.482;2023-04-21T03:58:25;6.30;;;2.78;;
69956;SDS011;57283;54.816;9.482;2023-04-21T04:00:53;5.07;;;2.30;;
69956;SDS011;57283;54.816;9.482;2023-04-21T04:03:20;8.50;;;2.40;;
69956;SDS011;57283;54.816;9.482;2023-04-21T04:05:49;7.25;;;2.90;;
69956;SDS011;57283;54.816;9.482;2023-04-21T04:08:16;7.10;;;2.90;;
69956;SDS011;57283;54.816;9.482;2023-04-21T04:10:44;6.63;;;2.65;;
69956;SDS011;57283;54.816;9.482;2023-04-21T04:13:11;7.25;;;3.30;;
69956;SDS011;57283;54.816;9.482;2023-04-21T04:15:40;7.40;;;2.70;;
69956;SDS011;57283;54.816;9.482;2023-04-21T04:18:08;6.22;;;2.50;;
69956;SDS011;57283;54.816;9.482;2023-04-21T04:20:36;6.23;;;2.53;;
69956;SDS011;57283;54.816;9.482;2023-04-21T04:23:03;8.15;;;2.67;;
69956;SDS011;57283;54.816;9.482;2023-04-21T04:25:31;5.53;;;2.47;;
69956;SDS011;57283;54.816;9.482;2023-04-21T04:27:59;6.30;;;2.80;;
69956;SDS011;57283;54.816;9.482;2023-04-21T04:30:27;6.57;;;2.53;;
69956;SDS011;57283;54.816;9.482;2023-04-21T04:32:56;8.47;;;2.90;;
69956;SDS011;57283;54.816;9.482;2023-04-21T04:35:24;6.47;;;2.72;;
69956;SDS011;57283;54.816;9.482;2023-04-21T04:37:52;8.68;;;2.70;;
69956;SDS011;57283;54.816;9.482;2023-04-21T04:40:22;6.65;;;2.25;;
69956;SDS011;57283;54.816;9.482;2023-04-21T04:42:49;8.82;;;2.70;;
69956;SDS011;57283;54.816;9.482;2023-04-21T04:45:17;5.47;;;2.60;;
69956;SDS011;57283;54.816;9.482;2023-04-21T04:47:46;6.53;;;2.25;;
69956;SDS011;57283;54.816;9.482;2023-04-21T04:50:15;7.07;;;2.63;;
69956;SDS011;57283;54.816;9.482;2023-04-21T04:52:43;5.32;;;2.20;;
69956;SDS011;57283;54.816;9.482;2023-04-21T04:55:12;7.13;;;2.65;;
69956;SDS011;57283;54.816;9.482;2023-04-21T04:57:40;5.43;;;2.30;;
69956;SDS011;57283;54.816;9.482;2023-04-21T05:00:08;5.85;;;2.47;;
69956;SDS011;57283;54.816;9.482;2023-04-21T05:02:37;5.50;;;2.70;;
69956;SDS011;57283;54.816;9.482;2023-04-21T05:05:05;7.30;;;2.40;;
69956;SDS011;57283;54.816;9.482;2023-04-21T05:07:35;7.15;;;3.00;;
69956;SDS011;57283;54.816;9.482;2023-04-21T05:10:03;8.23;;;2.60;;
69956;SDS011;57283;54.816;9.482;2023-04-21T05:12:31;6.13;;;2.47;;
69956;SDS011;57283;54.816;9.482;2023-04-21T05:14:58;6.07;;;2.60;;
69956;SDS011;57283;54.816;9.482;2023-04-21T05:17:26;6.22;;;2.80;;
69956;SDS011;57283;54.816;9.482;2023-04-21T05:19:56;6.88;;;2.83;;
69956;SDS011;57283;54.816;9.482;2023-04-21T05:22:24;6.17;;;2.80;;
69956;SDS011;57283;54.816;9.482;2023-04-21T05:24:53;5.50;;;2.47;;
69956;SDS011;57283;54.816;9.482;2023-04-21T05:27:20;6.05;;;2.60;;
69956;SDS011;57283;54.816;9.482;2023-04-21T05:29:48;5.97;;;2.60;;
69956;SDS011;57283;54.816;9.482;2023-04-21T05:32:16;5.88;;;2.83;;
69956;SDS011;57283;54.816;9.482;2023-04-21T05:34:44;6.63;;;2.80;;
69956;SDS011;57283;54.816;9.482;2023-04-21T05:37:11;7.47;;;3.42;;
69956;SDS011;57283;54.816;9.482;2023-04-21T05:39:39;7.28;;;2.80;;
69956;SDS011;57283;54.816;9.482;2023-04-21T05:42:09;6.07;;;3.30;;
69956;SDS011;57283;54.816;9.482;2023-04-21T05:44:37;7.28;;;3.25;;
69956;SDS011;57283;54.816;9.482;2023-04-21T05:47:05;6.23;;;3.57;;
69956;SDS011;57283;54.816;9.482;2023-04-21T05:49:33;5.18;;;3.05;;
69956;SDS011;57283;54.816;9.482;2023-04-21T05:52:00;7.65;;;3.72;;
69956;SDS011;57283;54.816;9.482;2023-04-21T05:54:28;5.63;;;2.97;;
69956;SDS011;57283;54.816;9.482;2023-04-21T05:56:56;6.63;;;3.38;;
69956;SDS011;57283;54.816;9.482;2023-04-21T05:59:25;6.97;;;3.20;;
69956;SDS011;57283;54.816;9.482;2023-04-21T06:01:52;8.27;;;3.53;;
69956;SDS011;57283;54.816;9.482;2023-04-21T06:04:20;7.05;;;3.22;;
69956;SDS011;57283;54.816;9.482;2023-04-21T06:06:48;6.70;;;3.38;;
69956;SDS011;57283;54.816;9.482;2023-04-21T06:09:15;6.82;;;3.40;;
69956;SDS011;57283;54.816;9.482;2023-04-21T06:11:43;5.93;;;3.50;;
69956;SDS011;57283;54.816;9.482;2023-04-21T06:14:11;6.15;;;3.35;;
69956;SDS011;57283;54.816;9.482;2023-04-21T06:16:39;6.88;;;3.30;;
69956;SDS011;57283;54.816;9.482;2023-04-21T06:19:07;6.68;;;3.70;;
69956;SDS011;57283;54.816;9.482;2023-04-21T06:21:35;5.65;;;3.70;;
69956;SDS011;57283;54.816;9.482;2023-04-21T06:24:03;7.50;;;3.13;;
69956;SDS011;57283;54.816;9.482;2023-04-21T06:26:30;6.43;;;3.75;;
69956;SDS011;57283;54.816;9.482;2023-04-21T06:28:58;6.13;;;3.53;;
69956;SDS011;57283;54.816;9.482;2023-04-21T06:31:25;6.38;;;3.72;;
69956;SDS011;57283;54.816;9.482;2023-04-21T06:33:54;8.15;;;3.83;;
69956;SDS011;57283;54.816;9.482;2023-04-21T06:36:22;6.53;;;3.50;;
69956;SDS011;57283;54.816;9.482;2023-04-21T06:38:49;7.65;;;3.83;;
69956;SDS011;57283;54.816;9.482;2023-04-21T06:41:17;7.38;;;3.42;;
69956;SDS011;57283;54.816;9.482;2023-04-21T06:43:45;5.38;;;3.65;;
69956;SDS011;57283;54.816;9.482;2023-04-21T06:46:12;6.53;;;3.97;;
69956;SDS011;57283;54.816;9.482;2023-04-21T06:48:40;8.53;;;4.00;;
69956;SDS011;57283;54.816;9.482;2023-04-21T06:51:09;7.57;;;4.07;;
69956;SDS011;57283;54.816;9.482;2023-04-21T06:53:36;7.97;;;4.10;;
69956;SDS011;57283;54.816;9.482;2023-04-21T06:56:04;5.95;;;4.00;;
69956;SDS011;57283;54.816;9.482;2023-04-21T06:58:32;6.22;;;3.78;;
69956;SDS011;57283;54.816;9.482;2023-04-21T07:00:59;6.10;;;3.43;;
69956;SDS011;57283;54.816;9.482;2023-04-21T07:03:27;7.00;;;3.67;;
69956;SDS011;57283;54.816;9.482;2023-04-21T07:05:55;5.63;;;3.60;;
69956;SDS011;57283;54.816;9.482;2023-04-21T07:08:24;5.50;;;3.50;;
69956;SDS011;57283;54.816;9.482;2023-04-21T07:10:52;6.80;;;3.90;;
69956;SDS011;57283;54.816;9.482;2023-04-21T07:13:19;6.67;;;3.50;;
69956;SDS011;57283;54.816;9.482;2023-04-21T07:15:47;7.22;;;3.60;;
69956;SDS011;57283;54.816;9.482;2023-04-21T07:18:15;11.70;;;3.67;;
69956;SDS011;57283;54.816;9.482;2023-04-21T07:20:42;7.32;;;4.03;;
69956;SDS011;57283;54.816;9.482;2023-04-21T07:23:10;6.07;;;3.90;;
69956;SDS011;57283;54.816;9.482;2023-04-21T07:25:39;6.40;;;3.50;;
69956;SDS011;57283;54.816;9.482;2023-04-21T07:28:07;6.97;;;3.70;;
69956;SDS011;57283;54.816;9.482;2023-04-21T07:30:34;5.60;;;3.50;;
69956;SDS011;57283;54.816;9.482;2023-04-21T07:33:02;8.23;;;3.53;;
69956;SDS011;57283;54.816;9.482;2023-04-21T07:35:30;7.32;;;3.90;;
69956;SDS011;57283;54.816;9.482;2023-04-21T07:37:57;7.43;;;3.97;;
69956;SDS011;57283;54.816;9.482;2023-04-21T07:40:25;8.52;;;3.30;;
69956;SDS011;57283;54.816;9.482;2023-04-21T07:42:54;6.65;;;3.80;;
69956;SDS011;57283;54.816;9.482;2023-04-21T07:45:21;6.43;;;4.00;;
69956;SDS011;57283;54.816;9.482;2023-04-21T07:47:49;6.65;;;3.83;;
69956;SDS011;57283;54.816;9.482;2023-04-21T07:50:16;5.10;;;3.57;;
69956;SDS011;57283;54.816;9.482;2023-04-21T07:52:44;7.15;;;3.33;;
69956;SDS011;57283;54.816;9.482;2023-04-21T07:55:13;6.32;;;3.58;;
69956;SDS011;57283;54.816;9.482;2023-04-21T07:57:41;6.50;;;3.60;;
69956;SDS011;57283;54.816;9.482;2023-04-21T08:00:10;7.20;;;3.72;;
69956;SDS011;57283;54.816;9.482;2023-04-21T08:02:38;6.50;;;3.77;;
69956;SDS011;57283;54.816;9.482;2023-04-21T08:05:06;7.22;;;3.95;;
69956;SDS011;57283;54.816;9.482;2023-04-21T08:07:34;8.10;;;3.85;;
69956;SDS011;57283;54.816;9.482;2023-04-21T08:10:02;7.63;;;3.85;;
69956;SDS011;57283;54.816;9.482;2023-04-21T08:12:30;7.25;;;3.80;;
69956;SDS011;57283;54.816;9.482;2023-04-21T08:14:57;7.83;;;3.57;;
69956;SDS011;57283;54.816;9.482;2023-04-21T08:17:32;6.50;;;3.55;;
69956;SDS011;57283;54.816;9.482;2023-04-21T08:20:00;7.78;;;4.13;;
69956;SDS011;57283;54.816;9.482;2023-04-21T08:22:27;7.00;;;3.60;;
69956;SDS011;57283;54.816;9.482;2023-04-21T08:24:55;8.70;;;3.83;;
69956;SDS011;57283;54.816;9.482;2023-04-21T08:27:23;6.60;;;3.67;;
69956;SDS011;57283;54.816;9.482;2023-04-21T08:29:50;6.13;;;3.85;;
69956;SDS011;57283;54.816;9.482;2023-04-21T08:32:18;7.88;;;3.97;;
69956;SDS011;57283;54.816;9.482;2023-04-21T08:34:50;6.13;;;4.10;;
69956;SDS011;57283;54.816;9.482;2023-04-21T08:37:18;7.72;;;4.40;;
69956;SDS011;57283;54.816;9.482;2023-04-21T08:39:46;6.40;;;4.30;;
69956;SDS011;57283;54.816;9.482;2023-04-21T08:42:16;6.78;;;4.57;;
69956;SDS011;57283;54.816;9.482;2023-04-21T08:44:44;5.57;;;3.90;;
69956;SDS011;57283;54.816;9.482;2023-04-21T08:47:12;6.70;;;3.90;;
69956;SDS011;57283;54.816;9.482;2023-04-21T08:49:41;7.05;;;4.22;;
69956;SDS011;57283;54.816;9.482;2023-04-21T08:52:12;5.93;;;4.13;;
69956;SDS011;57283;54.816;9.482;2023-04-21T08:54:40;7.68;;;4.50;;
69956;SDS011;57283;54.816;9.482;2023-04-21T08:57:07;5.65;;;4.22;;
69956;SDS011;57283;54.816;9.482;2023-04-21T08:59:41;6.97;;;4.50;;
69956;SDS011;57283;54.816;9.482;2023-04-21T09:02:10;6.35;;;4.88;;
69956;SDS011;57283;54.816;9.482;2023-04-21T09:04:39;9.40;;;5.17;;
69956;SDS011;57283;54.816;9.482;2023-04-21T09:07:07;6.50;;;4.32;;
69956;SDS011;57283;54.816;9.482;2023-04-21T09:09:52;7.72;;;5.25;;
69956;SDS011;57283;54.816;9.482;2023-04-21T09:12:20;7.43;;;5.20;;
69956;SDS011;57283;54.816;9.482;2023-04-21T09:14:48;7.68;;;4.93;;
69956;SDS011;57283;54.816;9.482;2023-04-21T09:17:17;6.97;;;4.63;;
69956;SDS011;57283;54.816;9.482;2023-04-21T09:19:44;5.63;;;4.72;;
69956;SDS011;57283;54.816;9.482;2023-04-21T09:22:15;6.30;;;5.05;;
69956;SDS011;57283;54.816;9.482;2023-04-21T09:24:44;5.93;;;4.53;;
69956;SDS011;57283;54.816;9.482;2023-04-21T09:27:13;7.88;;;5.20;;
69956;SDS011;57283;54.816;9.482;2023-04-21T09:29:44;7.87;;;4.87;;
69956;SDS011;57283;54.816;9.482;2023-04-21T09:32:15;6.32;;;4.45;;
69956;SDS011;57283;54.816;9.482;2023-04-21T09:34:43;6.63;;;5.20;;
69956;SDS011;57283;54.816;9.482;2023-04-21T09:37:11;5.75;;;4.80;;
69956;SDS011;57283;54.816;9.482;2023-04-21T09:39:44;8.43;;;5.30;;
69956;SDS011;57283;54.816;9.482;2023-04-21T09:42:31;8.27;;;4.97;;
69956;SDS011;57283;54.816;9.482;2023-04-21T09:45:04;7.57;;;4.63;;
69956;SDS011;57283;54.816;9.482;2023-04-21T09:47:37;6.47;;;5.10;;
69956;SDS011;57283;54.816;9.482;2023-04-21T09:50:06;6.90;;;5.70;;
69956;SDS011;57283;54.816;9.482;2023-04-21T09:52:38;9.13;;;5.30;;
69956;SDS011;57283;54.816;9.482;2023-04-21T09:55:07;7.23;;;4.70;;
69956;SDS011;57283;54.816;9.482;2023-04-21T09:57:39;7.82;;;5.18;;
69956;SDS011;57283;54.816;9.482;2023-04-21T10:00:08;6.15;;;5.35;;
69956;SDS011;57283;54.816;9.482;2023-04-21T10:02:42;6.35;;;4.50;;
69956;SDS011;57283;54.816;9.482;2023-04-21T10:05:10;7.70;;;5.32;;
69956;SDS011;57283;54.816;9.482;2023-04-21T10:07:38;7.40;;;5.37;;
69956;SDS011;57283;54.816;9.482;2023-04-21T10:10:08;7.03;;;5.40;;
69956;SDS011;57283;54.816;9.482;2023-04-21T10:12:40;6.93;;;5.40;;
69956;SDS011;57283;54.816;9.482;2023-04-21T10:15:24;7.82;;;5.35;;
69956;SDS011;57283;54.816;9.482;2023-04-21T10:18:08;7.10;;;5.70;;
69956;SDS011;57283;54.816;9.482;2023-04-21T10:20:49;7.00;;;5.30;;
69956;SDS011;57283;54.816;9.482;2023-04-21T10:23:24;6.82;;;4.97;;
69956;SDS011;57283;54.816;9.482;2023-04-21T10:25:52;6.68;;;5.10;;
69956;SDS011;57283;54.816;9.482;2023-04-21T10:28:21;7.40;;;6.15;;
69956;SDS011;57283;54.816;9.482;2023-04-21T10:31:15;6.95;;;5.65;;
69956;SDS011;57283;54.816;9.482;2023-04-21T10:33:59;6.63;;;5.10;;
69956;SDS011;57283;54.816;9.482;2023-04-21T10:36:41;7.93;;;5.47;;
69956;SDS011;57283;54.816;9.482;2023-04-21T10:39:09;8.65;;;5.20;;
69956;SDS011;57283;54.816;9.482;2023-04-21T10:41:38;7.60;;;5.20;;
69956;SDS011;57283;54.816;9.482;2023-04-21T10:44:11;7.53;;;5.22;;
69956;SDS011;57283;54.816;9.482;2023-04-21T10:46:39;7.67;;;5.40;;
69956;SDS011;57283;54.816;9.482;2023-04-21T10:49:08;6.60;;;5.78;;
69956;SDS011;57283;54.816;9.482;2023-04-21T10:54:25;6.43;;;5.18;;
69956;SDS011;57283;54.816;9.482;2023-04-21T10:56:53;7.38;;;5.68;;
69956;SDS011;57283;54.816;9.482;2023-04-21T10:59:25;7.13;;;5.20;;
69956;SDS011;57283;54.816;9.482;2023-04-21T11:01:53;7.07;;;5.38;;
69956;SDS011;57283;54.816;9.482;2023-04-21T11:04:21;6.55;;;5.32;;
69956;SDS011;57283;54.816;9.482;2023-04-21T11:07:03;7.22;;;5.68;;
69956;SDS011;57283;54.816;9.482;2023-04-21T11:09:31;8.50;;;5.22;;
69956;SDS011;57283;54.816;9.482;2023-04-21T11:11:59;6.83;;;5.50;;
69956;SDS011;57283;54.816;9.482;2023-04-21T11:14:29;8.77;;;5.43;;
69956;SDS011;57283;54.816;9.482;2023-04-21T11:16:59;7.03;;;5.70;;
69956;SDS011;57283;54.816;9.482;2023-04-21T11:19:27;6.95;;;5.20;;
69956;SDS011;57283;54.816;9.482;2023-04-21T11:21:54;7.80;;;5.57;;
69956;SDS011;57283;54.816;9.482;2023-04-21T11:24:22;6.73;;;5.40;;
69956;SDS011;57283;54.816;9.482;2023-04-21T11:26:50;7.13;;;5.20;;
69956;SDS011;57283;54.816;9.482;2023-04-21T11:29:17;7.05;;;5.43;;
69956;SDS011;57283;54.816;9.482;2023-04-21T11:31:46;6.97;;;5.32;;
69956;SDS011;57283;54.816;9.482;2023-04-21T11:34:15;8.50;;;5.32;;
69956;SDS011;57283;54.816;9.482;2023-04-21T11:36:48;6.73;;;4.60;;
69956;SDS011;57283;54.816;9.482;2023-04-21T11:39:16;7.28;;;5.00;;
69956;SDS011;57283;54.816;9.482;2023-04-21T11:41:47;7.05;;;5.25;;
69956;SDS011;57283;54.816;9.482;2023-04-21T11:44:29;8.05;;;5.68;;
69956;SDS011;57283;54.816;9.482;2023-04-21T11:46:58;10.43;;;5.47;;
69956;SDS011;57283;54.816;9.482;2023-04-21T11:49:26;6.53;;;5.30;;
69956;SDS011;57283;54.816;9.482;2023-04-21T11:51:55;7.30;;;4.90;;
69956;SDS011;57283;54.816;9.482;2023-04-21T11:54:23;6.40;;;5.78;;
69956;SDS011;57283;54.816;9.482;2023-04-21T11:56:53;8.63;;;4.93;;
69956;SDS011;57283;54.816;9.482;2023-04-21T11:59:21;8.05;;;5.32;;
69956;SDS011;57283;54.816;9.482;2023-04-21T12:01:52;7.17;;;4.77;;
69956;SDS011;57283;54.816;9.482;2023-04-21T12:04:22;7.43;;;5.10;;
69956;SDS011;57283;54.816;9.482;2023-04-21T12:06:54;6.55;;;5.13;;
69956;SDS011;57283;54.816;9.482;2023-04-21T12:09:22;9.02;;;5.00;;
69956;SDS011;57283;54.816;9.482;2023-04-21T12:11:51;6.68;;;5.43;;
69956;SDS011;57283;54.816;9.482;2023-04-21T12:14:19;6.50;;;4.60;;
69956;SDS011;57283;54.816;9.482;2023-04-21T12:16:48;6.63;;;5.15;;
69956;SDS011;57283;54.816;9.482;2023-04-21T12:19:24;7.18;;;4.97;;
69956;SDS011;57283;54.816;9.482;2023-04-21T12:22:00;6.95;;;4.90;;
69956;SDS011;57283;54.816;9.482;2023-04-21T12:24:28;7.60;;;5.00;;
69956;SDS011;57283;54.816;9.482;2023-04-21T12:26:56;8.03;;;4.80;;
69956;SDS011;57283;54.816;9.482;2023-04-21T12:29:24;6.65;;;4.50;;
69956;SDS011;57283;54.816;9.482;2023-04-21T12:31:51;6.47;;;4.60;;
69956;SDS011;57283;54.816;9.482;2023-04-21T12:34:19;5.88;;;4.50;;
69956;SDS011;57283;54.816;9.482;2023-04-21T12:36:48;6.72;;;4.50;;
69956;SDS011;57283;54.816;9.482;2023-04-21T12:39:16;8.07;;;5.07;;
69956;SDS011;57283;54.816;9.482;2023-04-21T12:41:44;6.20;;;5.10;;
69956;SDS011;57283;54.816;9.482;2023-04-21T12:44:12;7.60;;;5.13;;
69956;SDS011;57283;54.816;9.482;2023-04-21T12:46:40;10.02;;;5.10;;
69956;SDS011;57283;54.816;9.482;2023-04-21T12:49:08;8.32;;;5.45;;
69956;SDS011;57283;54.816;9.482;2023-04-21T12:51:36;6.93;;;5.10;;
69956;SDS011;57283;54.816;9.482;2023-04-21T12:54:05;7.93;;;5.50;;
69956;SDS011;57283;54.816;9.482;2023-04-21T12:56:33;7.07;;;5.50;;
69956;SDS011;57283;54.816;9.482;2023-04-21T12:59:00;7.32;;;5.22;;
69956;SDS011;57283;54.816;9.482;2023-04-21T13:01:28;9.25;;;5.25;;
69956;SDS011;57283;54.816;9.482;2023-04-21T13:03:55;6.90;;;5.00;;
69956;SDS011;57283;54.816;9.482;2023-04-21T13:06:23;8.82;;;5.53;;
69956;SDS011;57283;54.816;9.482;2023-04-21T13:08:51;7.65;;;4.90;;
69956;SDS011;57283;54.816;9.482;2023-04-21T13:11:20;8.10;;;4.80;;
69956;SDS011;57283;54.816;9.482;2023-04-21T13:13:48;6.72;;;5.13;;
69956;SDS011;57283;54.816;9.482;2023-04-21T13:16:15;8.77;;;4.90;;
69956;SDS011;57283;54.816;9.482;2023-04-21T13:18:43;8.13;;;4.90;;
69956;SDS011;57283;54.816;9.482;2023-04-21T13:21:11;7.43;;;5.20;;
69956;SDS011;57283;54.816;9.482;2023-04-21T13:23:38;9.80;;;4.70;;
69956;SDS011;57283;54.816;9.482;2023-04-21T13:26:06;8.50;;;5.15;;
69956;SDS011;57283;54.816;9.482;2023-04-21T13:28:35;8.83;;;5.50;;
69956;SDS011;57283;54.816;9.482;2023-04-21T13:31:03;8.82;;;5.32;;
69956;SDS011;57283;54.816;9.482;2023-04-21T13:33:32;7.15;;;5.45;;
69956;SDS011;57283;54.816;9.482;2023-04-21T13:36:00;7.43;;;4.82;;
69956;SDS011;57283;54.816;9.482;2023-04-21T13:38:28;6.55;;;5.15;;
69956;SDS011;57283;54.816;9.482;2023-04-21T13:40:56;7.13;;;4.57;;
69956;SDS011;57283;54.816;9.482;2023-04-21T13:43:24;8.02;;;4.75;;
69956;SDS011;57283;54.816;9.482;2023-04-21T13:45:53;8.77;;;4.85;;
69956;SDS011;57283;54.816;9.482;2023-04-21T13:48:21;9.52;;;5.22;;
69956;SDS011;57283;54.816;9.482;2023-04-21T13:50:49;7.85;;;5.20;;
69956;SDS011;57283;54.816;9.482;2023-04-21T13:53:17;7.97;;;5.10;;
69956;SDS011;57283;54.816;9.482;2023-04-21T13:55:46;8.32;;;4.57;;
69956;SDS011;57283;54.816;9.482;2023-04-21T13:58:14;7.75;;;5.30;;
69956;SDS011;57283;54.816;9.482;2023-04-21T14:00:43;9.98;;;4.65;;
69956;SDS011;57283;54.816;9.482;2023-04-21T14:03:12;7.38;;;4.55;;
69956;SDS011;57283;54.816;9.482;2023-04-21T14:05:40;7.97;;;4.10;;
69956;SDS011;57283;54.816;9.482;2023-04-21T14:08:08;8.73;;;4.88;;
69956;SDS011;57283;54.816;9.482;2023-04-21T14:10:35;7.53;;;4.60;;
69956;SDS011;57283;54.816;9.482;2023-04-21T14:13:03;8.23;;;4.78;;
69956;SDS011;57283;54.816;9.482;2023-04-21T14:15:31;8.98;;;5.20;;
69956;SDS011;57283;54.816;9.482;2023-04-21T14:17:58;6.73;;;4.70;;
69956;SDS011;57283;54.816;9.482;2023-04-21T14:20:27;7.97;;;5.25;;
69956;SDS011;57283;54.816;9.482;2023-04-21T14:22:55;7.15;;;4.38;;
69956;SDS011;57283;54.816;9.482;2023-04-21T14:25:23;8.18;;;5.35;;
69956;SDS011;57283;54.816;9.482;2023-04-21T14:27:50;8.60;;;5.10;;
69956;SDS011;57283;54.816;9.482;2023-04-21T14:30:18;8.67;;;4.80;;
69956;SDS011;57283;54.816;9.482;2023-04-21T14:32:45;8.57;;;4.72;;
69956;SDS011;57283;54.816;9.482;2023-04-21T14:35:13;8.02;;;4.80;;
69956;SDS011;57283;54.816;9.482;2023-04-21T14:37:42;38.83;;;33.38;;
69956;SDS011;57283;54.816;9.482;2023-04-21T14:40:10;33.33;;;30.02;;
69956;SDS011;57283;54.816;9.482;2023-04-21T14:42:37;37.77;;;34.13;;
69956;SDS011;57283;54.816;9.482;2023-04-21T14:45:07;10.32;;;8.10;;
69956;SDS011;57283;54.816;9.482;2023-04-21T14:47:35;11.25;;;7.45;;
69956;SDS011;57283;54.816;9.482;2023-04-21T14:50:03;11.07;;;5.72;;
69956;SDS011;57283;54.816;9.482;2023-04-21T14:52:31;9.35;;;7.50;;
69956;SDS011;57283;54.816;9.482;2023-04-21T14:55:00;16.47;;;13.63;;
69956;SDS011;57283;54.816;9.482;2023-04-21T14:57:29;28.30;;;22.10;;
69956;SDS011;57283;54.816;9.482;2023-04-21T14:59:56;35.05;;;31.50;;